Time;durP1;ratioP1;P1;durP2;ratioP2;P2;SDS_P1;SDS_P2;PMS_P1;PMS_P2;Temp;Humidity;BMP_temperature;BMP_pressure;BME280_temperature;BME280_humidity;BME280_pressure;Samples;Min_cycle;Max_cycle;Signal;HPM_P1;HPM_P2
2024/03/18 00:00:22;;;;;;;10.80;8.37;;;10.50;89.40;;;12.41;60.23;97729.81;5030721;28;20029;-44
2024/03/18 00:02:54;;;;;;;12.23;8.37;;;10.50;89.40;;;12.40;60.36;97728.13;5026793;28;20041;-44
2024/03/18 00:05:22;;;;;;;10.97;8.10;;;10.50;89.30;;;12.40;60.02;97722.78;5013242;28;20502;-46
2024/03/18 00:07:52;;;;;;;10.90;8.57;;;10.40;89.10;;;12.39;60.10;97719.28;4999992;28;20053;-44
2024/03/18 00:10:18;;;;;;;10.40;8.27;;;10.50;89.00;;;12.39;60.13;97716.63;5030258;28;20040;-46
2024/03/18 00:12:45;;;;;;;11.03;8.67;;;10.50;87.90;;;12.41;60.14;97719.94;5013562;28;20051;-44
2024/03/18 00:15:15;;;;;;;10.97;8.43;;;10.60;87.30;;;12.38;60.37;97722.13;5013059;28;20061;-45
2024/03/18 00:17:43;;;;;;;11.27;8.90;;;10.50;88.30;;;12.36;60.27;97724.94;5012349;28;20051;-45
2024/03/18 00:20:12;;;;;;;12.70;10.07;;;10.50;88.20;;;12.35;60.39;97719.81;5012690;28;20046;-45
2024/03/18 00:22:43;;;;;;;10.83;8.77;;;10.50;89.30;;;12.39;60.62;97723.81;5013068;28;20065;-44
2024/03/18 00:25:11;;;;;;;10.30;8.50;;;10.60;89.20;;;12.40;60.51;97720.13;5029618;28;20037;-45
2024/03/18 00:27:38;;;;;;;10.07;8.30;;;10.70;88.70;;;12.39;60.50;97719.28;5030428;28;20047;-45
2024/03/18 00:30:10;;;;;;;10.23;8.80;;;10.60;89.50;;;12.37;60.75;97717.81;5016977;28;20071;-45
2024/03/18 00:32:40;;;;;;;12.67;8.83;;;10.60;89.90;;;12.36;60.93;97716.94;4996814;28;20050;-44
2024/03/18 00:35:09;;;;;;;10.90;8.80;;;10.50;90.00;;;12.36;60.97;97713.44;5026619;28;20044;-44
2024/03/18 00:37:37;;;;;;;12.40;9.97;;;10.50;90.40;;;12.34;60.68;97712.78;5030206;28;20063;-44
2024/03/18 00:40:05;;;;;;;15.60;11.17;;;10.50;90.60;;;12.34;60.80;97708.28;5017794;28;20051;-44
2024/03/18 00:42:32;;;;;;;14.00;9.53;;;10.50;89.80;;;12.38;60.87;97704.25;4996368;28;20247;-44
2024/03/18 00:44:59;;;;;;;13.40;9.83;;;10.60;89.70;;;12.39;60.86;97697.94;5020770;28;20050;-45
2024/03/18 00:47:26;;;;;;;10.07;8.33;;;10.60;89.80;;;12.40;60.72;97702.25;5012196;28;20415;-45
2024/03/18 00:49:52;;;;;;;12.00;9.03;;;10.60;88.90;;;12.39;60.67;97700.59;5026028;28;20048;-45
2024/03/18 00:52:19;;;;;;;9.93;8.40;;;10.60;88.50;;;12.41;60.84;97692.44;5012293;28;20047;-45
2024/03/18 00:54:46;;;;;;;11.00;8.53;;;10.60;88.50;;;12.42;60.62;97683.41;4979932;28;20399;-44
2024/03/18 00:57:12;;;;;;;12.57;8.97;;;10.70;88.50;;;12.44;61.06;97680.56;5029542;28;20511;-44
2024/03/18 00:59:39;;;;;;;12.83;9.03;;;10.70;89.30;;;12.45;60.83;97680.38;5029682;28;20047;-44
2024/03/18 01:02:06;;;;;;;15.23;8.50;;;10.70;89.20;;;12.47;60.62;97682.91;5017280;28;20041;-45
2024/03/18 01:04:33;;;;;;;13.60;9.80;;;10.70;88.50;;;12.48;60.99;97679.22;5012310;28;20184;-44
2024/03/18 01:07:01;;;;;;;13.30;10.50;;;10.80;89.50;;;12.47;60.96;97672.22;5019619;28;20054;-44
2024/03/18 01:09:28;;;;;;;14.33;11.03;;;10.70;89.50;;;12.47;61.08;97670.38;5029739;28;20491;-45
2024/03/18 01:11:55;;;;;;;13.07;10.23;;;10.70;89.50;;;12.47;61.07;97669.53;5025095;28;20044;-45
2024/03/18 01:14:22;;;;;;;11.47;8.90;;;10.70;90.00;;;12.47;61.09;97667.69;5012218;28;20034;-45
2024/03/18 01:16:48;;;;;;;13.77;9.47;;;10.70;90.10;;;12.48;61.06;97665.84;5010029;28;20614;-45
2024/03/18 01:19:15;;;;;;;12.20;9.30;;;10.70;89.40;;;12.50;60.84;97655.84;4995646;28;20418;-44
2024/03/18 01:21:42;;;;;;;13.33;10.23;;;10.70;89.20;;;12.46;61.02;97668.69;5011601;28;20042;-44
2024/03/18 01:24:10;;;;;;;14.63;8.47;;;10.70;89.00;;;12.45;61.09;97663.53;5024722;28;20073;-45
2024/03/18 01:26:36;;;;;;;11.53;8.63;;;10.70;89.20;;;12.41;60.99;97666.56;5029452;28;20040;-46
2024/03/18 01:29:03;;;;;;;12.87;9.03;;;10.60;88.50;;;12.39;60.94;97659.72;5020579;28;20527;-46
2024/03/18 01:31:30;;;;;;;13.00;9.63;;;10.60;88.60;;;12.40;61.14;97658.72;5011466;28;20049;-45
2024/03/18 01:33:57;;;;;;;13.10;8.77;;;10.60;88.60;;;12.42;61.15;97664.69;4998876;28;20403;-44
2024/03/18 01:36:24;;;;;;;11.00;7.57;;;10.70;88.40;;;12.43;61.03;97663.72;5029196;28;20028;-44
2024/03/18 01:38:50;;;;;;;13.77;9.07;;;10.60;88.30;;;12.43;60.77;97650.38;5029258;28;20047;-45
2024/03/18 01:41:17;;;;;;;13.67;9.53;;;10.60;87.80;;;12.44;60.71;97652.00;5028716;28;20037;-43
2024/03/18 01:43:44;;;;;;;10.67;8.53;;;10.70;87.20;;;12.41;60.81;97647.84;5028734;28;20044;-43
2024/03/18 01:46:16;;;;;;;11.27;8.80;;;10.60;87.90;;;12.39;60.86;97639.19;5016124;28;20048;-45
2024/03/18 01:48:45;;;;;;;11.60;8.93;;;10.50;88.30;;;12.40;60.84;97640.84;5011180;28;20418;-43
2024/03/18 01:51:12;;;;;;;11.00;8.90;;;10.60;88.60;;;12.41;60.81;97631.84;5007697;28;20422;-43
2024/03/18 01:53:39;;;;;;;14.17;9.43;;;10.60;88.40;;;12.43;60.98;97636.16;5028841;28;20068;-43
2024/03/18 01:56:11;;;;;;;13.90;9.20;;;10.60;89.70;;;12.43;61.15;97636.16;5019824;28;20504;-44
2024/03/18 01:58:38;;;;;;;11.10;9.03;;;10.60;89.60;;;12.43;61.36;97630.81;5010871;28;20046;-42
2024/03/18 02:01:07;;;;;;;13.37;9.43;;;10.60;89.40;;;12.43;61.19;97633.50;5018483;28;20038;-42
2024/03/18 02:03:35;;;;;;;12.90;9.37;;;10.60;89.70;;;12.44;61.11;97638.66;5028601;28;20055;-42
2024/03/18 02:06:02;;;;;;;12.77;9.80;;;10.70;89.30;;;12.43;61.35;97631.69;5023392;28;20075;-42
2024/03/18 02:08:29;;;;;;;12.27;9.50;;;10.60;89.40;;;12.44;61.22;97619.16;4995015;28;20047;-42
2024/03/18 02:10:56;;;;;;;14.83;10.47;;;10.60;88.90;;;12.45;61.06;97621.66;4994882;28;20059;-42
2024/03/18 02:13:23;;;;;;;14.83;9.67;;;10.70;89.40;;;12.48;61.32;97615.13;5028456;28;20040;-42
2024/03/18 02:15:49;;;;;;;13.37;10.10;;;10.70;89.30;;;12.46;61.57;97606.47;5012102;28;20041;-45
2024/03/18 02:18:17;;;;;;;12.67;10.03;;;10.70;90.20;;;12.46;61.41;97603.78;5013918;28;20047;-44
2024/03/18 02:20:43;;;;;;;13.70;9.83;;;10.70;90.00;;;12.44;61.44;97598.63;5010418;28;20426;-45
2024/03/18 02:23:12;;;;;;;14.57;10.33;;;10.60;90.50;;;12.44;61.59;97600.47;5019963;28;20422;-44
2024/03/18 02:25:39;;;;;;;14.90;10.27;;;10.60;91.00;;;12.44;61.49;97600.47;5028237;28;20044;-45
2024/03/18 02:28:06;;;;;;;11.87;9.17;;;10.60;90.10;;;12.44;61.75;97595.94;5021621;28;20052;-44
2024/03/18 02:30:34;;;;;;;15.23;9.93;;;10.70;90.20;;;12.45;61.56;97592.28;5009674;28;20046;-44
2024/03/18 02:33:00;;;;;;;11.33;9.70;;;10.70;90.50;;;12.46;61.71;97585.91;5013016;28;20395;-45
2024/03/18 02:35:27;;;;;;;15.17;11.13;;;10.70;90.10;;;12.44;61.73;97581.78;5027891;28;20044;-44
2024/03/18 02:37:54;;;;;;;11.90;9.17;;;10.70;90.60;;;12.44;61.71;97589.78;5028371;28;20049;-42
2024/03/18 02:40:20;;;;;;;18.00;10.03;;;10.70;90.10;;;12.40;61.78;97579.44;5011609;28;20041;-44
2024/03/18 02:42:47;;;;;;;12.77;9.20;;;10.60;90.30;;;12.42;61.89;97576.59;5010736;28;20050;-44
2024/03/18 02:45:14;;;;;;;10.50;8.70;;;10.70;90.20;;;12.42;61.88;97568.59;5021246;28;20047;-44
2024/03/18 02:47:45;;;;;;;12.00;9.63;;;10.60;90.10;;;12.40;61.78;97574.09;5027929;28;20048;-44
2024/03/18 02:50:14;;;;;;;12.70;9.73;;;10.60;90.60;;;12.40;61.67;97568.75;5002172;28;20052;-44
2024/03/18 02:52:42;;;;;;;12.20;9.57;;;10.60;90.80;;;12.42;61.69;97571.25;4994042;28;20057;-44
2024/03/18 02:55:09;;;;;;;12.33;9.43;;;10.60;90.00;;;12.41;61.72;97570.44;5016943;28;20046;-45
2024/03/18 02:57:36;;;;;;;13.93;10.37;;;10.60;90.60;;;12.38;61.82;97567.28;5027905;28;20562;-44
2024/03/18 03:00:08;;;;;;;11.70;8.23;;;10.50;90.60;;;12.36;61.95;97566.63;5025432;28;20419;-44
2024/03/18 03:02:34;;;;;;;13.33;8.73;;;10.50;90.90;;;12.34;61.86;97557.97;5010397;28;20517;-45
2024/03/18 03:05:01;;;;;;;11.80;8.80;;;10.50;91.10;;;12.33;61.88;97557.13;5010979;28;20043;-45
2024/03/18 03:07:28;;;;;;;9.83;8.57;;;10.50;91.80;;;12.31;61.92;97551.13;5027466;28;20040;-44
2024/03/18 03:09:54;;;;;;;15.97;9.83;;;10.40;91.80;;;12.32;62.09;97549.28;5010566;28;20040;-44
2024/03/18 03:12:23;;;;;;;10.53;8.10;;;10.40;91.80;;;12.32;61.96;97539.44;5012718;28;20052;-44
2024/03/18 03:14:49;;;;;;;13.03;9.90;;;10.50;91.60;;;12.34;62.27;97549.94;4993104;28;20422;-45
2024/03/18 03:17:16;;;;;;;9.17;8.20;;;10.50;91.80;;;12.35;62.27;97539.09;5020408;28;20038;-45
2024/03/18 03:19:43;;;;;;;11.67;9.33;;;10.60;91.70;;;12.38;62.05;97545.91;5027914;28;20049;-45
2024/03/18 03:22:09;;;;;;;13.10;9.03;;;10.60;90.90;;;12.38;61.92;97545.91;5020559;28;20055;-45
2024/03/18 03:24:36;;;;;;;12.43;9.40;;;10.60;91.10;;;12.38;62.01;97538.75;5010122;28;20113;-45
2024/03/18 03:27:03;;;;;;;12.73;8.67;;;10.60;91.30;;;12.37;62.09;97545.09;5010723;28;20415;-44
2024/03/18 03:29:30;;;;;;;10.47;9.10;;;10.50;92.10;;;12.38;62.06;97538.75;5011219;28;20041;-44
2024/03/18 03:31:56;;;;;;;10.57;8.37;;;10.50;91.30;;;12.38;61.99;97537.91;5026910;28;20049;-45
2024/03/18 03:34:23;;;;;;;12.27;8.70;;;10.50;91.30;;;12.39;61.88;97537.75;5012914;28;20126;-45
2024/03/18 03:36:50;;;;;;;13.40;8.60;;;10.50;91.10;;;12.38;62.05;97537.91;5009956;28;20059;-44
2024/03/18 03:39:17;;;;;;;10.00;9.00;;;10.50;91.50;;;12.37;61.91;97542.44;5002971;28;20043;-45
2024/03/18 03:41:44;;;;;;;13.00;9.53;;;10.50;91.70;;;12.38;61.99;97537.91;5026966;28;20044;-45
2024/03/18 03:44:10;;;;;;;10.53;7.47;;;10.50;91.20;;;12.38;61.76;97530.72;5022178;28;20047;-44
2024/03/18 03:46:37;;;;;;;10.70;8.77;;;10.50;90.80;;;12.39;61.94;97531.59;5009975;28;20422;-45
2024/03/18 03:49:04;;;;;;;11.77;8.77;;;10.50;90.30;;;12.40;61.83;97528.72;5009768;28;20066;-44
2024/03/18 03:51:30;;;;;;;12.17;8.87;;;10.50;90.10;;;12.40;62.02;97510.03;5009467;28;20053;-45
2024/03/18 03:53:57;;;;;;;9.73;8.57;;;10.60;90.00;;;12.42;61.81;97507.19;5009776;28;20050;-46
2024/03/18 03:56:25;;;;;;;12.13;8.63;;;10.60;91.00;;;12.43;61.75;97505.34;5023079;28;20050;-45
2024/03/18 03:58:52;;;;;;;10.93;7.90;;;10.60;90.20;;;12.43;61.64;97502.66;5027144;28;20032;-45
2024/03/18 04:01:19;;;;;;;12.10;8.13;;;10.60;90.20;;;12.44;61.61;97501.69;5016779;28;20040;-44
2024/03/18 04:03:46;;;;;;;11.23;8.27;;;10.60;90.00;;;12.46;61.75;97488.97;5009744;28;20518;-44
2024/03/18 04:06:12;;;;;;;12.77;9.03;;;10.60;90.10;;;12.48;61.80;97492.31;5014035;28;20057;-45
2024/03/18 04:08:39;;;;;;;16.53;9.77;;;10.60;90.00;;;12.49;61.71;97494.81;5027089;28;20040;-44
2024/03/18 04:11:06;;;;;;;9.47;8.27;;;10.60;89.30;;;12.50;61.59;97493.78;5026500;28;20071;-45
2024/03/18 04:13:32;;;;;;;8.80;7.90;;;10.60;89.00;;;12.49;61.45;97497.47;5017639;28;20502;-45
2024/03/18 04:15:59;;;;;;;10.47;8.07;;;10.60;89.30;;;12.50;61.68;97496.44;4966667;28;20050;-45
2024/03/18 04:18:26;;;;;;;12.77;7.30;;;10.60;89.10;;;12.49;61.37;97493.97;4964618;28;20046;-45
2024/03/18 04:20:53;;;;;;;9.30;7.53;;;10.70;88.90;;;12.46;61.41;97495.13;5004598;28;20039;-44
2024/03/18 04:23:20;;;;;;;12.30;7.00;;;10.70;88.50;;;12.47;61.47;97488.81;5021568;28;20053;-45
2024/03/18 04:25:47;;;;;;;11.23;7.17;;;10.70;88.90;;;12.48;61.47;97479.78;5030462;28;20048;-44
2024/03/18 04:28:14;;;;;;;12.20;7.50;;;10.70;89.70;;;12.47;61.58;97480.78;5025883;28;20059;-45
2024/03/18 04:30:42;;;;;;;8.57;7.23;;;10.60;88.70;;;12.47;61.61;97475.47;5012519;28;20058;-44
2024/03/18 04:33:09;;;;;;;11.47;7.63;;;10.70;89.20;;;12.47;61.68;97474.63;4996185;28;20054;-45
2024/03/18 04:35:35;;;;;;;9.37;8.07;;;10.60;89.70;;;12.45;61.72;97482.00;5013774;28;20070;-45
2024/03/18 04:38:02;;;;;;;11.50;8.50;;;10.60;90.50;;;12.46;61.71;97481.78;5013494;28;20419;-45
2024/03/18 04:40:29;;;;;;;12.53;7.33;;;10.60;91.10;;;12.47;62.04;97478.13;5015741;28;20053;-44
2024/03/18 04:42:56;;;;;;;10.20;8.00;;;10.60;91.40;;;12.47;61.91;97477.31;5012755;28;20051;-43
2024/03/18 04:45:23;;;;;;;9.47;7.23;;;10.60;91.40;;;12.46;62.10;97478.28;5005416;28;20046;-42
2024/03/18 04:47:52;;;;;;;8.83;7.20;;;10.50;91.60;;;12.45;62.05;97476.66;5029568;28;20056;-43
2024/03/18 04:50:21;;;;;;;8.57;6.27;;;10.60;91.20;;;12.46;62.15;97473.78;5023434;28;20055;-43
2024/03/18 04:52:50;;;;;;;9.33;6.90;;;10.70;92.50;;;12.49;62.33;97473.44;5012218;28;20058;-43
2024/03/18 04:55:19;;;;;;;10.73;7.60;;;10.70;91.00;;;12.49;62.29;97465.44;5017017;28;20063;-47
2024/03/18 04:57:46;;;;;;;9.97;7.03;;;10.70;91.40;;;12.49;62.33;97469.94;5029795;28;20443;-43
2024/03/18 05:00:14;;;;;;;9.40;6.37;;;10.70;91.50;;;12.50;62.13;97466.25;5027950;28;20040;-44
2024/03/18 05:02:41;;;;;;;7.13;6.27;;;10.70;91.00;;;12.50;62.36;97463.59;5012135;28;20043;-43
2024/03/18 05:05:13;;;;;;;10.93;7.60;;;10.70;90.90;;;12.50;62.20;97460.91;5012352;28;20047;-44
2024/03/18 05:07:40;;;;;;;8.50;6.47;;;10.70;91.00;;;12.50;62.37;97461.75;4989135;28;20043;-43
2024/03/18 05:10:08;;;;;;;10.03;6.33;;;10.70;91.00;;;12.50;62.25;97464.41;4979427;28;20058;-43
2024/03/18 05:12:35;;;;;;;9.67;6.50;;;10.60;90.60;;;12.49;62.12;97457.41;5028391;28;20056;-42
2024/03/18 05:15:02;;;;;;;9.77;6.60;;;10.70;90.80;;;12.50;62.34;97458.25;5029597;28;20439;-43
2024/03/18 05:17:29;;;;;;;9.03;6.50;;;10.70;90.50;;;12.50;62.20;97464.41;5017320;28;20045;-44
2024/03/18 05:19:56;;;;;;;10.57;6.47;;;10.70;90.90;;;12.53;62.15;97460.56;5012188;28;20046;-44
2024/03/18 05:22:22;;;;;;;10.43;6.87;;;10.70;90.60;;;12.55;62.05;97467.38;5001368;28;20050;-44
2024/03/18 05:24:49;;;;;;;9.83;7.57;;;10.80;90.00;;;12.55;61.92;97454.03;5029373;28;20036;-45
2024/03/18 05:27:19;;;;;;;8.97;7.27;;;10.80;89.70;;;12.56;62.05;97457.53;5027453;28;20135;-43
2024/03/18 05:29:46;;;;;;;9.60;7.77;;;10.80;89.80;;;12.55;62.16;97458.56;4994948;28;20506;-43
2024/03/18 05:32:16;;;;;;;8.67;6.87;;;10.90;90.10;;;12.54;62.04;97457.72;5010698;28;20051;-44
2024/03/18 05:34:45;;;;;;;7.53;6.13;;;10.80;90.30;;;12.49;62.28;97452.09;5004322;28;20034;-43
2024/03/18 05:37:12;;;;;;;8.90;6.60;;;10.70;89.90;;;12.47;62.12;97454.09;5011535;28;20035;-43
2024/03/18 05:39:39;;;;;;;10.13;7.13;;;10.70;90.90;;;12.47;62.19;97456.78;5012353;28;20067;-43
2024/03/18 05:42:07;;;;;;;7.53;6.70;;;10.70;90.90;;;12.46;62.36;97455.09;5028739;28;20041;-43
2024/03/18 05:44:34;;;;;;;8.50;7.20;;;10.70;90.90;;;12.45;62.23;97458.78;5015810;28;20049;-44
2024/03/18 05:47:01;;;;;;;13.80;8.53;;;10.70;90.80;;;12.47;62.39;97450.59;5011490;28;20498;-43
2024/03/18 05:49:28;;;;;;;11.53;10.27;;;10.70;90.50;;;12.46;62.36;97457.75;5019829;28;20035;-43
2024/03/18 05:51:56;;;;;;;11.60;9.17;;;10.80;90.30;;;12.45;62.26;97456.13;5028549;28;20040;-43
2024/03/18 05:54:23;;;;;;;11.63;8.73;;;10.70;90.20;;;12.39;62.31;97462.16;5023936;28;20044;-44
2024/03/18 05:56:49;;;;;;;11.70;9.33;;;10.70;91.80;;;12.38;62.47;97458.66;5011391;28;20042;-45
2024/03/18 05:59:16;;;;;;;9.80;8.03;;;10.60;91.80;;;12.38;62.34;97455.16;5010888;28;20043;-43
2024/03/18 06:01:43;;;;;;;11.47;9.03;;;10.60;91.30;;;12.34;62.65;97456.53;5028308;28;20039;-44
2024/03/18 06:04:11;;;;;;;11.40;8.33;;;10.50;92.30;;;12.34;62.66;97459.19;5012373;28;20049;-44
2024/03/18 06:06:41;;;;;;;10.43;8.67;;;10.50;93.00;;;12.35;62.73;97459.03;4970297;28;20048;-43
2024/03/18 06:09:08;;;;;;;10.30;8.10;;;10.50;93.30;;;12.35;62.81;97464.34;5012160;28;20048;-44
2024/03/18 06:11:36;;;;;;;11.83;8.40;;;10.50;93.80;;;12.36;62.88;97462.50;5015607;28;20044;-45
2024/03/18 06:14:06;;;;;;;9.53;8.50;;;10.50;93.10;;;12.36;62.91;97460.66;5036555;28;20051;-44
2024/03/18 06:16:32;;;;;;;12.27;8.23;;;10.50;93.40;;;12.36;63.20;97462.50;5017493;28;20049;-42
2024/03/18 06:18:59;;;;;;;12.90;8.80;;;10.50;93.80;;;12.37;62.93;97464.19;5011224;28;20062;-42
2024/03/18 06:21:32;;;;;;;13.07;8.67;;;10.50;94.30;;;12.34;63.12;97468.03;5016150;28;20035;-45
2024/03/18 06:24:05;;;;;;;13.48;9.80;;;10.50;93.80;;;12.32;63.13;97471.88;5028459;28;20063;-43
2024/03/18 06:26:32;;;;;;;11.83;9.03;;;10.50;93.90;;;12.30;63.06;97473.91;5019150;28;20420;-46
2024/03/18 06:28:58;;;;;;;12.53;9.00;;;10.50;93.80;;;12.30;63.28;97465.91;4994227;28;20414;-44
2024/03/18 06:31:26;;;;;;;13.80;9.17;;;10.50;94.10;;;12.29;63.23;97469.56;4998512;28;20042;-44
2024/03/18 06:33:53;;;;;;;11.90;8.63;;;10.40;94.60;;;12.31;63.37;97486.22;5028170;28;20067;-42
2024/03/18 06:36:20;;;;;;;10.77;9.40;;;10.50;94.80;;;12.27;63.40;97479.59;5027238;28;20051;-44
2024/03/18 06:38:47;;;;;;;13.30;11.90;;;10.40;94.10;;;12.21;63.29;97486.44;5010794;28;20437;-43
2024/03/18 06:41:14;;;;;;;11.33;8.73;;;10.30;95.00;;;12.16;63.59;97494.16;5010351;28;20042;-43
2024/03/18 06:43:41;;;;;;;12.20;8.43;;;10.30;94.80;;;12.07;63.57;97485.34;5024468;28;20495;-43
2024/03/18 06:46:10;;;;;;;11.10;9.20;;;10.20;96.10;;;12.06;63.85;97481.03;5027464;28;20525;-42
2024/03/18 06:48:36;;;;;;;12.03;8.90;;;10.20;96.60;;;12.07;63.75;97484.53;5016286;28;20047;-42
2024/03/18 06:51:03;;;;;;;11.27;9.57;;;10.20;95.90;;;12.04;63.63;97491.06;5010110;28;20039;-42
2024/03/18 06:53:30;;;;;;;23.27;20.87;;;10.20;96.10;;;12.03;63.82;97492.06;5016999;28;20031;-43
2024/03/18 06:56:00;;;;;;;14.23;10.73;;;10.20;96.90;;;12.04;63.86;97491.06;5027875;28;20040;-44
2024/03/18 06:58:27;;;;;;;15.77;12.10;;;10.20;97.00;;;12.04;64.10;97488.41;5023900;28;20500;-43
2024/03/18 07:00:55;;;;;;;14.87;10.73;;;10.30;97.30;;;12.07;64.06;97488.03;5009967;28;20039;-42
2024/03/18 07:03:22;;;;;;;11.50;9.17;;;10.30;97.30;;;12.07;64.31;97497.88;5010317;28;20046;-42
2024/03/18 07:05:49;;;;;;;13.00;9.53;;;10.30;96.70;;;12.05;64.22;97491.88;5027569;28;20638;-42
2024/03/18 07:08:15;;;;;;;14.20;8.53;;;10.30;98.20;;;12.02;64.27;97496.56;5010930;28;20041;-43
2024/03/18 07:10:42;;;;;;;10.50;8.03;;;10.20;98.10;;;11.98;64.57;97495.25;5021463;28;20444;-44
2024/03/18 07:13:09;;;;;;;9.83;7.97;;;10.20;98.70;;;11.94;64.63;97488.59;5010398;28;20051;-42
2024/03/18 07:15:35;;;;;;;11.30;8.40;;;10.10;99.10;;;11.84;65.06;97493.25;5018716;28;20043;-42
2024/03/18 07:18:03;;;;;;;8.50;7.00;;;10.00;99.90;;;11.85;64.97;97489.59;5024688;28;20312;-42
2024/03/18 07:20:30;;;;;;;11.30;9.60;;;10.00;99.90;;;11.89;65.08;97484.75;5021708;28;20040;-42
2024/03/18 07:22:56;;;;;;;9.03;6.90;;;10.10;99.90;;;11.94;64.92;97488.59;5010078;28;20065;-42
2024/03/18 07:25:23;;;;;;;12.97;7.60;;;10.20;99.90;;;11.97;65.14;97480.22;5010185;28;20039;-42
2024/03/18 07:27:50;;;;;;;10.00;7.20;;;10.20;99.90;;;12.01;65.32;97475.38;5002229;28;20050;-43
2024/03/18 07:30:20;;;;;;;9.30;7.27;;;10.30;99.90;;;12.06;65.23;97481.03;5009691;28;20039;-43
2024/03/18 07:32:47;;;;;;;10.07;7.33;;;10.30;99.90;;;12.08;65.38;97483.50;5024999;28;20497;-43
2024/03/18 07:35:14;;;;;;;9.10;8.20;;;10.30;99.90;;;12.12;65.41;97482.19;5027050;28;20047;-42
2024/03/18 07:37:42;;;;;;;7.03;5.67;;;10.30;99.90;;;12.15;65.25;97487.97;4999430;28;20036;-42
2024/03/18 07:40:11;;;;;;;8.47;6.83;;;10.40;99.90;;;12.15;65.30;97474.63;5010017;28;20039;-42
2024/03/18 07:42:41;;;;;;;9.57;7.00;;;10.40;99.90;;;12.20;65.28;97474.13;5018526;28;20035;-43
2024/03/18 07:45:08;;;;;;;8.77;5.97;;;10.50;99.90;;;12.26;65.53;97477.94;5027389;28;20063;-42
2024/03/18 07:47:35;;;;;;;8.67;6.03;;;10.50;99.90;;;12.27;65.16;97471.56;5020527;28;20048;-42
2024/03/18 07:50:06;;;;;;;7.43;4.97;;;10.50;99.90;;;12.31;65.35;97471.06;5010016;28;20046;-43
2024/03/18 07:52:32;;;;;;;6.77;5.47;;;10.50;99.90;;;12.33;65.41;97458.38;5013667;28;20050;-44
2024/03/18 07:55:00;;;;;;;12.40;9.00;;;10.60;99.90;;;12.38;65.37;97455.97;5027305;28;20059;-45
2024/03/18 07:57:30;;;;;;;11.93;7.90;;;10.60;99.90;;;12.43;65.76;97460.81;5014368;28;20040;-45
2024/03/18 07:59:56;;;;;;;9.10;7.83;;;10.60;99.90;;;12.46;65.63;97465.78;5005965;28;20054;-44
2024/03/18 08:02:23;;;;;;;8.03;5.67;;;10.70;99.90;;;12.46;65.68;97468.44;5013203;28;20051;-44
2024/03/18 08:04:52;;;;;;;8.30;6.33;;;10.70;99.90;;;12.41;65.88;97486.84;5028346;28;20419;-45
2024/03/18 08:07:19;;;;;;;13.23;7.57;;;10.60;99.90;;;12.38;65.79;97482.69;5030605;28;20045;-44
2024/03/18 08:09:46;;;;;;;9.10;5.60;;;10.70;99.90;;;12.38;65.84;97487.19;5018332;28;20049;-44
2024/03/18 08:12:12;;;;;;;8.23;5.97;;;10.60;99.90;;;12.35;65.90;97487.56;5012777;28;20042;-44
2024/03/18 08:14:42;;;;;;;11.47;8.87;;;10.70;99.90;;;12.39;66.07;97481.69;5020195;28;20375;-44
2024/03/18 08:17:09;;;;;;;10.40;7.30;;;10.70;99.90;;;12.43;66.04;97487.50;5013733;28;20044;-43
2024/03/18 08:19:37;;;;;;;11.53;8.77;;;10.70;99.90;;;12.45;65.79;97485.50;5025847;28;20044;-44
2024/03/18 08:22:04;;;;;;;11.60;8.60;;;10.80;99.90;;;12.43;66.01;97489.31;5012722;28;20046;-45
2024/03/18 08:24:33;;;;;;;11.37;6.60;;;10.60;99.90;;;12.41;65.78;97493.00;5012742;28;20038;-44
2024/03/18 08:27:00;;;;;;;6.67;5.87;;;10.60;99.90;;;12.43;65.71;97494.66;5030488;28;20044;-45
2024/03/18 08:29:27;;;;;;;7.83;6.10;;;10.60;99.90;;;12.41;66.03;97493.00;5014501;28;20033;-44
2024/03/18 08:31:54;;;;;;;9.17;7.30;;;10.60;99.90;;;12.39;65.71;97495.03;4997347;28;20047;-44
2024/03/18 08:34:20;;;;;;;9.57;7.63;;;10.70;99.90;;;12.43;65.89;97494.66;4996693;28;20062;-44
2024/03/18 08:36:48;;;;;;;10.40;7.23;;;10.70;99.90;;;12.46;66.02;97494.31;5023557;28;20066;-43
2024/03/18 08:39:16;;;;;;;11.23;8.73;;;10.70;99.90;;;12.48;65.95;97498.47;5013935;28;20075;-45
2024/03/18 08:41:45;;;;;;;10.20;7.40;;;10.70;99.90;;;12.53;65.95;97501.44;5020743;28;20041;-43
2024/03/18 08:44:11;;;;;;;10.70;7.33;;;10.80;99.90;;;12.55;66.11;97501.28;4980026;28;20047;-44
2024/03/18 08:46:40;;;;;;;10.20;6.43;;;10.80;99.90;;;12.58;66.07;97499.09;5016624;28;20051;-44
2024/03/18 08:49:08;;;;;;;7.17;6.07;;;10.80;99.90;;;12.63;66.27;97503.06;5029627;28;20044;-45
2024/03/18 08:51:35;;;;;;;9.77;6.33;;;10.90;99.90;;;12.68;66.10;97493.50;5028014;28;20510;-42
2024/03/18 08:54:03;;;;;;;8.53;6.57;;;10.90;99.90;;;12.75;66.31;97490.94;4995860;28;20493;-42
2024/03/18 08:56:29;;;;;;;7.83;5.90;;;11.00;99.90;;;12.81;66.34;97490.22;5012554;28;20047;-42
2024/03/18 08:58:56;;;;;;;6.53;4.77;;;11.10;99.90;;;12.87;66.25;97496.69;5011662;28;20044;-44
2024/03/18 09:01:22;;;;;;;10.13;4.53;;;11.20;99.90;;;12.88;66.09;97493.03;5013003;28;20052;-43
2024/03/18 09:03:50;;;;;;;8.57;5.50;;;11.10;99.90;;;12.88;66.12;97496.50;5018010;28;20043;-42
2024/03/18 09:06:17;;;;;;;20.63;14.00;;;11.10;99.90;;;12.88;66.22;97498.38;4996060;28;20039;-42
2024/03/18 09:08:45;;;;;;;7.87;6.90;;;11.10;99.90;;;12.89;66.13;97489.31;5017795;28;20058;-42
2024/03/18 09:11:12;;;;;;;5.40;4.73;;;11.10;99.90;;;12.90;66.37;97489.16;5029222;28;20036;-42
2024/03/18 09:13:40;;;;;;;5.43;4.60;;;11.20;99.90;;;12.97;66.29;97495.44;5026597;28;20048;-44
2024/03/18 09:16:07;;;;;;;6.13;4.57;;;11.30;99.90;;;13.01;66.26;97495.94;5012167;28;20051;-42
2024/03/18 09:18:34;;;;;;;12.07;7.10;;;11.30;99.90;;;13.02;66.19;97494.91;4995079;28;20537;-43
2024/03/18 09:21:01;;;;;;;8.33;6.73;;;11.40;99.90;;;13.02;66.14;97500.25;5011394;28;20422;-43
2024/03/18 09:23:27;;;;;;;8.80;6.13;;;11.30;99.90;;;13.04;66.33;97494.72;5011447;28;20422;-44
2024/03/18 09:25:54;;;;;;;7.70;6.63;;;11.40;99.90;;;13.06;66.13;97498.88;5024657;28;20050;-43
2024/03/18 09:28:20;;;;;;;13.73;9.20;;;11.50;99.90;;;13.08;66.25;97496.84;5012976;28;20033;-42
2024/03/18 09:31:02;;;;;;;10.67;8.80;;;11.50;99.90;;;13.03;66.33;97499.25;5021108;28;20041;-42
2024/03/18 09:33:30;;;;;;;13.63;8.20;;;11.40;99.90;;;13.04;66.12;97498.22;5011960;28;20418;-44
2024/03/18 09:35:56;;;;;;;12.70;8.77;;;11.40;99.90;;;13.03;66.14;97501.91;5025566;28;20502;-42
2024/03/18 09:38:23;;;;;;;14.53;10.13;;;11.40;99.90;;;12.97;66.14;97498.13;5029265;28;20029;-42
2024/03/18 09:40:57;;;;;;;12.33;9.97;;;11.30;99.90;;;12.93;66.18;97509.31;5019474;28;20496;-42
2024/03/18 09:43:25;;;;;;;11.63;8.87;;;11.20;99.90;;;12.93;66.19;97507.50;4996459;28;20054;-42
2024/03/18 09:45:52;;;;;;;12.60;9.83;;;11.20;99.90;;;12.96;66.16;97511.66;5005070;28;20082;-44
2024/03/18 09:48:19;;;;;;;16.85;11.32;;;11.20;99.90;;;12.97;66.10;97514.16;5028836;28;20045;-42
2024/03/18 09:50:46;;;;;;;12.83;9.97;;;11.30;99.90;;;12.97;66.25;97508.00;5006858;28;20423;-43
2024/03/18 09:53:13;;;;;;;11.82;9.32;;;11.20;99.90;;;12.93;66.20;97514.66;5011380;28;20038;-44
2024/03/18 09:55:43;;;;;;;11.27;8.40;;;11.20;99.90;;;12.89;66.17;97516.03;4996269;28;20050;-44
2024/03/18 09:58:16;;;;;;;9.97;8.30;;;11.10;99.90;;;12.89;66.20;97518.72;5012732;28;20047;-44
2024/03/18 10:00:44;;;;;;;8.60;7.40;;;11.10;99.90;;;12.89;66.12;97516.03;5025925;28;20063;-42
2024/03/18 10:03:16;;;;;;;8.45;7.45;;;11.10;99.90;;;12.92;66.28;97521.88;5011326;28;20342;-42
2024/03/18 10:05:43;;;;;;;8.57;7.57;;;11.20;99.90;;;12.94;66.31;97525.19;5013168;28;20059;-42
2024/03/18 10:08:14;;;;;;;10.17;7.50;;;11.20;99.90;;;12.90;66.25;97525.72;5028798;28;20036;-43
2024/03/18 10:10:45;;;;;;;10.70;7.03;;;11.10;99.90;;;12.95;66.38;97526.00;5010847;28;20475;-43
2024/03/18 10:13:12;;;;;;;9.20;7.70;;;11.20;99.90;;;12.94;66.19;97519.03;4995170;28;20042;-43